createdAt,value
2022-10-15T00:00:49.486Z,100140.78
2022-10-15T00:03:16.011Z,100133.81
2022-10-15T00:05:42.442Z,100135.56
2022-10-15T00:08:10.421Z,100131.19
2022-10-15T00:10:37.306Z,100127.72
2022-10-15T00:13:04.941Z,100134.69
2022-10-15T00:15:31.411Z,100126.84
2022-10-15T00:17:58.307Z,100129.44
2022-10-15T00:20:24.739Z,100135.53
2022-10-15T00:22:51.218Z,100132.91
2022-10-15T00:25:17.690Z,100131.19
2022-10-15T00:27:44.108Z,100127.66
2022-10-15T00:30:10.925Z,100118.94
2022-10-15T00:32:37.408Z,100125.91
2022-10-15T00:35:04.082Z,100136.38
2022-10-15T00:37:30.478Z,100135.47
2022-10-15T00:39:56.905Z,100131.13
2022-10-15T00:42:23.695Z,100136.34
2022-10-15T00:45:00.367Z,100136.31
2022-10-15T00:47:39.512Z,100127.59
2022-10-15T00:50:08.872Z,100119.75
2022-10-15T00:52:53.543Z,100116.25
2022-10-15T00:55:32.029Z,100113.59
2022-10-15T00:58:02.088Z,100110.97
2022-10-15T01:00:28.701Z,100118.81
2022-10-15T01:02:55.128Z,100118.81
2022-10-15T01:05:22.070Z,100108.34
2022-10-15T01:07:48.478Z,100117.94
2022-10-15T01:10:15.641Z,100114.44
2022-10-15T01:12:54.094Z,100113.56
2022-10-15T01:15:30.410Z,100108.34
2022-10-15T01:18:05.401Z,100109.22
2022-10-15T01:21:09.520Z,100107.44
2022-10-15T01:24:14.465Z,100104.84
2022-10-15T01:27:09.099Z,100097.00
2022-10-15T01:29:52.977Z,100093.47
2022-10-15T01:32:37.231Z,100093.47
2022-10-15T01:35:12.377Z,100096.94
2022-10-15T01:37:55.886Z,100089.09
2022-10-15T01:40:38.512Z,100091.69
2022-10-15T01:43:09.738Z,100096.06
2022-10-15T01:45:40.684Z,100095.19
2022-10-15T01:48:09.668Z,100096.91
2022-10-15T01:50:38.980Z,100091.69
2022-10-15T01:53:06.403Z,100089.06
2022-10-15T01:55:33.263Z,100088.19
2022-10-15T01:58:00.348Z,100082.97
2022-10-15T02:00:26.849Z,100083.81
2022-10-15T02:02:53.249Z,100080.34
2022-10-15T02:05:27.673Z,100083.81
2022-10-15T02:08:12.119Z,100079.47
2022-10-15T02:13:20.697Z,100084.69
2022-10-15T02:16:08.840Z,100079.41
2022-10-15T02:18:42.353Z,100082.91
2022-10-15T02:21:11.674Z,100078.53
2022-10-15T02:23:59.240Z,100080.22
2022-10-15T02:26:28.292Z,100078.53
2022-10-15T02:28:57.496Z,100068.03
2022-10-15T02:31:25.909Z,100071.53
2022-10-15T02:33:54.951Z,100076.72
2022-10-15T02:36:22.010Z,100076.72
2022-10-15T02:38:49.390Z,100072.38
2022-10-15T02:41:16.117Z,100067.13
2022-10-15T02:43:42.712Z,100068.88
2022-10-15T02:46:10.535Z,100063.63
2022-10-15T02:48:36.949Z,100066.25
2022-10-15T02:51:04.690Z,100067.94
2022-10-15T02:53:31.117Z,100055.75
2022-10-15T02:55:57.551Z,100060.09
2022-10-15T02:58:24.715Z,100054.88
2022-10-15T03:00:51.220Z,100049.66
2022-10-15T03:03:17.706Z,100047.03
2022-10-15T03:05:44.289Z,100054.88
2022-10-15T03:08:10.683Z,100054.00
2022-10-15T03:10:37.105Z,100053.13
2022-10-15T03:13:05.050Z,100047.91
2022-10-15T03:15:31.539Z,100056.59
2022-10-15T03:17:57.957Z,100051.38
2022-10-15T03:20:24.683Z,100053.09
2022-10-15T03:22:51.110Z,100045.25
2022-10-15T03:25:17.508Z,100044.38
2022-10-15T03:27:43.927Z,100039.16
2022-10-15T03:30:10.761Z,100040.03
2022-10-15T03:32:37.226Z,100037.44
2022-10-15T03:35:03.846Z,100039.16
2022-10-15T03:37:30.255Z,100034.81
2022-10-15T03:39:56.654Z,100040.03
2022-10-15T03:42:23.618Z,100037.44
2022-10-15T03:44:50.152Z,100040.03
2022-10-15T03:47:16.565Z,100046.13
2022-10-15T03:49:42.964Z,100046.13
2022-10-15T03:52:09.384Z,100047.00
2022-10-15T03:54:35.856Z,100049.59
2022-10-15T03:57:02.271Z,100046.97
2022-10-15T03:59:28.765Z,100052.22
2022-10-15T04:01:55.183Z,100060.03
2022-10-15T04:04:21.583Z,100060.91
2022-10-15T04:06:48.070Z,100055.69
2022-10-15T04:09:14.839Z,100057.44
2022-10-15T04:11:41.619Z,100058.28
2022-10-15T04:14:08.056Z,100054.81
2022-10-15T04:16:34.569Z,100053.97
2022-10-15T04:19:01.015Z,100052.22
2022-10-15T04:21:27.448Z,100048.75
2022-10-15T04:23:53.850Z,100051.34
2022-10-15T04:26:20.297Z,100055.69
2022-10-15T04:28:48.631Z,100049.59
2022-10-15T04:31:15.548Z,100053.09
2022-10-15T04:33:41.941Z,100046.13
2022-10-15T04:36:12.859Z,100050.47
2022-10-15T04:38:39.372Z,100064.38
2022-10-15T04:41:08.410Z,100062.59
2022-10-15T04:43:35.475Z,100066.13
2022-10-15T04:46:03.812Z,100054.78
2022-10-15T04:48:31.444Z,100063.47
2022-10-15T04:51:18.078Z,100067.81
2022-10-15T04:53:44.794Z,100059.97
2022-10-15T04:56:15.342Z,100066.06
2022-10-15T04:58:42.561Z,100063.44
2022-10-15T05:01:12.164Z,100072.13
2022-10-15T05:03:41.113Z,100077.34
2022-10-15T05:06:14.138Z,100068.66
2022-10-15T05:08:43.461Z,100066.91
2022-10-15T05:11:13.560Z,100068.66
2022-10-15T05:13:40.062Z,100067.75
2022-10-15T05:16:13.889Z,100072.09
2022-10-15T05:18:41.217Z,100068.63
2022-10-15T05:21:08.107Z,100069.50
2022-10-15T05:23:34.735Z,100070.34
2022-10-15T05:26:04.770Z,100074.69
2022-10-15T05:28:31.511Z,100077.31
2022-10-15T05:31:04.546Z,100078.16
2022-10-15T05:33:31.053Z,100083.38
2022-10-15T05:35:57.506Z,100083.38
2022-10-15T05:38:24.464Z,100086.00
2022-10-15T05:40:50.865Z,100084.25
2022-10-15T05:43:17.266Z,100095.50
2022-10-15T05:45:43.720Z,100100.78
2022-10-15T05:48:10.139Z,100099.03
2022-10-15T05:50:36.563Z,100104.25
2022-10-15T05:53:02.987Z,100097.31
2022-10-15T05:55:30.130Z,100101.66
2022-10-15T05:58:01.071Z,100100.78
2022-10-15T06:00:27.479Z,100105.13
2022-10-15T06:05:25.303Z,100106.91
2022-10-15T06:07:51.804Z,100097.31
2022-10-15T06:10:18.373Z,100096.47
2022-10-15T06:12:50.048Z,100091.25
2022-10-15T06:15:17.086Z,100092.13
2022-10-15T06:17:43.471Z,100099.97
2022-10-15T06:20:11.135Z,100101.72
2022-10-15T06:25:09.451Z,100101.72
2022-10-15T06:27:35.867Z,100107.81
2022-10-15T06:30:02.492Z,100114.78
2022-10-15T06:32:28.891Z,100115.66
2022-10-15T06:34:55.309Z,100120.00
2022-10-15T06:37:22.010Z,100115.66
2022-10-15T06:39:48.752Z,100127.84
2022-10-15T06:42:15.335Z,100122.69
2022-10-15T06:44:41.776Z,100113.13
2022-10-15T06:47:08.235Z,100113.13
2022-10-15T06:49:34.694Z,100115.75
2022-10-15T06:52:03.831Z,100121.00
2022-10-15T06:54:30.471Z,100121.03
2022-10-15T06:56:56.904Z,100122.81
2022-10-15T06:59:23.420Z,100128.06
2022-10-15T07:01:49.851Z,100135.94
2022-10-15T07:04:16.250Z,100135.06
2022-10-15T07:06:42.807Z,100145.56
2022-10-15T07:09:09.223Z,100144.75
2022-10-15T07:11:35.648Z,100147.38
2022-10-15T07:14:02.554Z,100151.75
2022-10-15T07:16:29.010Z,100154.41
2022-10-15T07:18:55.462Z,100157.06
2022-10-15T07:21:21.916Z,100163.19
2022-10-15T07:23:48.350Z,100160.59
2022-10-15T07:26:14.806Z,100160.59
2022-10-15T07:28:41.359Z,100162.34
2022-10-15T07:31:08.534Z,100175.44
2022-10-15T07:33:35.059Z,100173.75
2022-10-15T07:36:06.226Z,100177.25
2022-10-15T07:38:36.162Z,100174.66
2022-10-15T07:41:03.897Z,100165.94
2022-10-15T07:43:30.596Z,100164.25
2022-10-15T07:45:57.019Z,100169.53
2022-10-15T07:48:23.568Z,100166.94
2022-10-15T07:51:02.515Z,100171.31
2022-10-15T07:53:29.048Z,100168.75
2022-10-15T07:55:59.831Z,100170.50
2022-10-15T07:58:26.327Z,100169.66
2022-10-15T08:00:53.083Z,100163.56
2022-10-15T08:03:19.488Z,100161.91
2022-10-15T08:05:45.906Z,100166.25
2022-10-15T08:08:12.302Z,100171.50
2022-10-15T08:10:38.728Z,100175.00
2022-10-15T08:13:05.140Z,100171.59
2022-10-15T08:15:31.549Z,100167.22
2022-10-15T08:17:59.381Z,100170.75
2022-10-15T08:20:25.812Z,100172.53
2022-10-15T08:22:52.230Z,100167.34
2022-10-15T08:25:18.673Z,100172.59
2022-10-15T08:27:45.058Z,100174.41
2022-10-15T08:30:11.470Z,100168.31
2022-10-15T08:32:37.864Z,100177.91
2022-10-15T08:35:04.416Z,100184.06
2022-10-15T08:37:30.829Z,100184.94
2022-10-15T08:39:57.228Z,100191.06
2022-10-15T08:42:32.595Z,100197.16
2022-10-15T08:45:02.570Z,100190.25
2022-10-15T08:47:34.798Z,100190.25
2022-10-15T08:50:04.738Z,100185.03
2022-10-15T08:52:47.118Z,100178.94
2022-10-15T08:55:16.272Z,100192.06
2022-10-15T08:58:08.161Z,100197.31
2022-10-15T09:00:40.527Z,100188.63
2022-10-15T09:03:09.889Z,100202.59
2022-10-15T09:05:46.587Z,100193.88
2022-10-15T09:08:28.789Z,100200.00
2022-10-15T09:10:59.376Z,100203.50
2022-10-15T09:13:28.600Z,100202.63
2022-10-15T09:16:05.842Z,100199.19
2022-10-15T09:18:34.417Z,100214.03
2022-10-15T09:21:02.290Z,100209.66
2022-10-15T09:23:32.153Z,100207.91
2022-10-15T09:26:23.384Z,100207.09
2022-10-15T09:29:14.404Z,100211.47
2022-10-15T09:31:48.184Z,100211.47
2022-10-15T09:34:26.847Z,100216.72
2022-10-15T09:37:08.022Z,100211.47
2022-10-15T09:39:47.821Z,100215.88
2022-10-15T09:42:32.244Z,100221.97
2022-10-15T09:45:05.996Z,100218.47
2022-10-15T09:47:34.553Z,100218.50
2022-10-15T09:50:01.743Z,100215.00
2022-10-15T09:52:40.322Z,100215.00
2022-10-15T09:55:34.451Z,100212.38
2022-10-15T09:58:08.803Z,100216.78
2022-10-15T10:00:59.520Z,100217.63
2022-10-15T10:03:28.337Z,100207.16
2022-10-15T10:06:04.075Z,100212.41
2022-10-15T10:09:00.908Z,100214.16
2022-10-15T10:11:27.601Z,100214.16
2022-10-15T10:13:56.409Z,100211.50
2022-10-15T10:16:23.580Z,100208.91
2022-10-15T10:19:12.500Z,100214.16
2022-10-15T10:21:42.064Z,100221.13
2022-10-15T10:24:34.430Z,100224.66
2022-10-15T10:27:02.228Z,100211.50
2022-10-15T10:29:33.962Z,100220.28
2022-10-15T10:32:10.641Z,100217.63
2022-10-15T10:34:37.310Z,100216.78
2022-10-15T10:37:04.647Z,100211.50
2022-10-15T10:39:32.551Z,100211.47
2022-10-15T10:42:04.699Z,100206.22
2022-10-15T10:44:39.840Z,100207.94
2022-10-15T10:47:06.141Z,100200.94
2022-10-15T10:49:35.277Z,100206.16
2022-10-15T10:52:01.692Z,100204.38
2022-10-15T10:54:29.078Z,100205.25
2022-10-15T10:56:56.633Z,100214.00
2022-10-15T10:59:41.887Z,100211.34
2022-10-15T11:02:12.391Z,100213.09
2022-10-15T11:04:39.430Z,100211.34
2022-10-15T11:07:18.004Z,100207.84
2022-10-15T11:10:12.410Z,100216.59
2022-10-15T11:12:38.715Z,100209.63
2022-10-15T11:15:38.538Z,100200.84
2022-10-15T11:18:44.141Z,100201.69
2022-10-15T11:21:50.591Z,100196.41
2022-10-15T11:24:33.446Z,100195.53
2022-10-15T11:27:33.514Z,100197.25
2022-10-15T11:30:22.102Z,100199.88
2022-10-15T11:33:13.082Z,100199.03
2022-10-15T11:35:58.739Z,100206.94
2022-10-15T11:38:43.489Z,100202.56
2022-10-15T11:41:40.876Z,100199.97
2022-10-15T11:44:13.311Z,100197.31
2022-10-15T11:46:46.701Z,100202.56
2022-10-15T11:49:37.971Z,100203.38
2022-10-15T11:52:41.668Z,100200.72
2022-10-15T11:55:18.756Z,100193.72
2022-10-15T11:57:46.117Z,100184.84
2022-10-15T12:00:41.220Z,100180.44
2022-10-15T12:03:15.731Z,100191.78
2022-10-15T12:05:50.559Z,100184.72
2022-10-15T12:08:17.659Z,100178.56
2022-10-15T12:11:15.299Z,100176.78
2022-10-15T12:13:47.593Z,100174.13
2022-10-15T12:16:21.371Z,100167.06
2022-10-15T12:18:58.022Z,100161.78
2022-10-15T12:21:38.893Z,100159.16
2022-10-15T12:24:26.613Z,100153.00
2022-10-15T12:26:54.035Z,100159.16
2022-10-15T12:29:22.344Z,100153.00
2022-10-15T12:31:51.054Z,100157.38
2022-10-15T12:34:36.385Z,100152.97
2022-10-15T12:37:18.541Z,100147.69
2022-10-15T12:39:53.348Z,100152.88
2022-10-15T12:42:27.598Z,100137.91
2022-10-15T12:44:54.477Z,100144.94
2022-10-15T12:47:45.758Z,100151.94
2022-10-15T12:50:20.178Z,100151.94
2022-10-15T12:52:49.505Z,100149.28
2022-10-15T12:55:32.061Z,100155.41
2022-10-15T12:58:32.595Z,100146.66
2022-10-15T13:01:07.426Z,100133.56
2022-10-15T13:03:36.519Z,100127.44
2022-10-15T13:06:22.795Z,100127.38
2022-10-15T13:08:56.923Z,100133.50
2022-10-15T13:11:42.554Z,100131.75
2022-10-15T13:14:08.900Z,100135.16
2022-10-15T13:16:35.701Z,100140.41
2022-10-15T13:19:03.239Z,100133.38
2022-10-15T13:21:53.965Z,100134.25
2022-10-15T13:24:25.652Z,100136.06
2022-10-15T13:26:53.742Z,100125.59
2022-10-15T13:29:23.384Z,100130.00
2022-10-15T13:31:50.858Z,100130.00
2022-10-15T13:34:26.453Z,100117.75
2022-10-15T13:36:53.645Z,100115.97
2022-10-15T13:39:26.776Z,100114.19
2022-10-15T13:41:56.225Z,100108.06
2022-10-15T13:44:24.261Z,100118.59
2022-10-15T13:46:51.162Z,100112.44
2022-10-15T13:49:18.251Z,100107.19
2022-10-15T13:51:49.974Z,100101.06
2022-10-15T13:54:20.596Z,100101.00
2022-10-15T13:56:57.661Z,100110.69
2022-10-15T13:59:25.693Z,100113.34
2022-10-15T14:01:55.736Z,100114.22
2022-10-15T14:04:23.158Z,100110.75
2022-10-15T14:09:37.993Z,100109.03
2022-10-15T14:12:08.254Z,100104.66
2022-10-15T14:14:35.766Z,100103.78
2022-10-15T14:17:12.995Z,100111.69
2022-10-15T14:19:39.719Z,100104.72
2022-10-15T14:22:06.532Z,100110.00
2022-10-15T14:24:35.220Z,100102.16
2022-10-15T14:27:14.812Z,100098.59
2022-10-15T14:29:46.305Z,100101.25
2022-10-15T14:32:32.362Z,100101.28
2022-10-15T14:35:00.191Z,100100.38
2022-10-15T14:37:35.600Z,100100.38
2022-10-15T14:40:13.881Z,100100.41
2022-10-15T14:42:46.067Z,100103.94
2022-10-15T14:45:18.541Z,100104.81
2022-10-15T14:47:47.451Z,100105.69
2022-10-15T14:50:14.140Z,100098.69
2022-10-15T14:52:47.893Z,100106.63
2022-10-15T14:55:16.128Z,100118.88
2022-10-15T14:57:44.195Z,100112.75
2022-10-15T15:00:29.483Z,100118.91
2022-10-15T15:02:57.336Z,100126.81
2022-10-15T15:05:28.097Z,100124.19
2022-10-15T15:07:56.772Z,100130.34
2022-10-15T15:10:24.687Z,100126.81
2022-10-15T15:12:56.568Z,100130.34
2022-10-15T15:15:24.929Z,100131.25
2022-10-15T15:17:54.351Z,100127.78
2022-10-15T15:20:21.498Z,100139.19
2022-10-15T15:22:50.263Z,100148.84
2022-10-15T15:25:22.629Z,100145.34
2022-10-15T15:27:49.054Z,100140.09
2022-10-15T15:30:19.146Z,100134.84
2022-10-15T15:32:45.969Z,100138.38
2022-10-15T15:35:27.013Z,100141.03
2022-10-15T15:37:53.432Z,100143.66
2022-10-15T15:40:20.035Z,100149.81
2022-10-15T15:42:46.947Z,100150.69
2022-10-15T15:45:21.260Z,100148.09
2022-10-15T15:47:48.036Z,100152.50
2022-10-15T15:50:15.004Z,100150.78
2022-10-15T15:52:43.571Z,100153.44
2022-10-15T15:55:10.872Z,100149.94
2022-10-15T15:57:37.364Z,100150.81
2022-10-15T16:00:06.302Z,100155.22
2022-10-15T16:02:33.586Z,100156.97
2022-10-15T16:05:01.732Z,100159.59
2022-10-15T16:07:29.636Z,100155.25
2022-10-15T16:09:56.330Z,100162.28
2022-10-15T16:12:22.738Z,100150.03
2022-10-15T16:14:49.226Z,100157.06
2022-10-15T16:17:15.680Z,100153.53
2022-10-15T16:19:42.169Z,100152.69
2022-10-15T16:22:08.550Z,100154.47
2022-10-15T16:24:35.706Z,100168.47
2022-10-15T16:27:02.165Z,100158.00
2022-10-15T16:29:28.581Z,100156.25
2022-10-15T16:31:55.004Z,100155.38
2022-10-15T16:34:21.425Z,100160.63
2022-10-15T16:36:47.823Z,100160.63
2022-10-15T16:39:14.224Z,100166.75
2022-10-15T16:41:40.628Z,100160.63
2022-10-15T16:44:07.194Z,100159.78
2022-10-15T16:46:33.670Z,100161.53
2022-10-15T16:49:00.135Z,100163.28
2022-10-15T16:51:26.807Z,100160.66
2022-10-15T16:53:54.705Z,100166.78
2022-10-15T16:56:23.389Z,100165.94
2022-10-15T16:58:50.211Z,100165.06
2022-10-15T17:01:19.267Z,100165.91
2022-10-15T17:03:46.075Z,100169.41
2022-10-15T17:06:16.040Z,100167.69
2022-10-15T17:08:46.112Z,100174.69
2022-10-15T17:11:21.575Z,100173.84
2022-10-15T17:13:49.529Z,100186.97
2022-10-15T17:16:24.918Z,100175.63
2022-10-15T17:21:25.897Z,100189.59
2022-10-15T17:23:54.000Z,100194.84
2022-10-15T17:26:22.543Z,100193.09
2022-10-15T17:28:49.560Z,100193.13
2022-10-15T17:31:18.911Z,100196.63
2022-10-15T17:33:45.805Z,100201.88
2022-10-15T17:36:17.078Z,100204.50
2022-10-15T17:38:44.763Z,100203.66
2022-10-15T17:41:13.789Z,100208.88
2022-10-15T17:43:40.435Z,100206.25
2022-10-15T17:46:17.966Z,100206.28
2022-10-15T17:48:44.644Z,100209.78
2022-10-15T17:51:14.245Z,100197.53
2022-10-15T17:53:41.595Z,100215.03
2022-10-15T17:56:11.106Z,100211.53
2022-10-15T17:58:37.914Z,100220.28
2022-10-15T18:01:04.440Z,100207.19
2022-10-15T18:03:30.987Z,100208.00
2022-10-15T18:05:57.380Z,100219.38
2022-10-15T18:08:24.080Z,100220.25
2022-10-15T18:10:52.163Z,100231.63
2022-10-15T18:13:18.967Z,100236.00
2022-10-15T18:15:47.703Z,100225.50
2022-10-15T18:18:14.815Z,100228.13
2022-10-15T18:20:42.093Z,100220.25
2022-10-15T18:23:09.018Z,100221.13
2022-10-15T18:25:35.507Z,100223.75
2022-10-15T18:28:01.956Z,100222.00
2022-10-15T18:30:29.381Z,100225.50
2022-10-15T18:32:58.044Z,100222.88
2022-10-15T18:35:25.419Z,100228.13
2022-10-15T18:37:51.841Z,100230.75
2022-10-15T18:40:18.302Z,100230.75
2022-10-15T18:42:47.675Z,100236.88
2022-10-15T18:45:14.452Z,100238.66
2022-10-15T18:47:40.849Z,100236.03
2022-10-15T18:50:07.866Z,100231.66
2022-10-15T18:52:39.945Z,100244.75
2022-10-15T18:55:07.737Z,100242.13
2022-10-15T18:57:34.786Z,100247.34
2022-10-15T19:00:01.287Z,100258.72
2022-10-15T19:02:28.084Z,100256.97
2022-10-15T19:04:54.625Z,100259.59
2022-10-15T19:07:21.049Z,100255.25
2022-10-15T19:09:47.472Z,100243.88
2022-10-15T19:12:13.909Z,100243.00
2022-10-15T19:14:40.319Z,100246.50
2022-10-15T19:17:06.720Z,100250.88
2022-10-15T19:19:33.207Z,100257.00
2022-10-15T19:21:59.642Z,100255.25
2022-10-15T19:24:26.162Z,100254.38
2022-10-15T19:26:52.658Z,100260.47
2022-10-15T19:29:19.754Z,100268.34
2022-10-15T19:31:47.749Z,100274.47
2022-10-15T19:34:14.814Z,100291.97
2022-10-15T19:36:46.325Z,100282.34
2022-10-15T19:39:15.432Z,100284.09
2022-10-15T19:41:42.906Z,100281.44
2022-10-15T19:44:11.273Z,100275.31
2022-10-15T19:46:37.848Z,100270.97
2022-10-15T19:49:08.862Z,100279.69
2022-10-15T19:51:35.504Z,100269.22
2022-10-15T19:54:02.161Z,100270.97
2022-10-15T19:56:28.739Z,100278.84
2022-10-15T19:58:59.763Z,100279.69
2022-10-15T20:01:27.703Z,100277.94
2022-10-15T20:03:54.384Z,100282.28
2022-10-15T20:06:21.250Z,100290.16
2022-10-15T20:08:47.866Z,100295.41
2022-10-15T20:11:14.290Z,100305.88
2022-10-15T20:13:40.703Z,100299.78
2022-10-15T20:16:08.957Z,100304.97
2022-10-15T20:18:35.895Z,100293.63
2022-10-15T20:21:15.988Z,100307.59
2022-10-15T20:23:43.272Z,100304.97
2022-10-15T20:26:13.110Z,100310.22
2022-10-15T20:28:41.498Z,100309.34
2022-10-15T20:31:10.142Z,100314.53
2022-10-15T20:33:36.749Z,100326.78
2022-10-15T20:36:07.667Z,100325.03
2022-10-15T20:38:35.038Z,100328.50
2022-10-15T20:41:16.122Z,100330.25
2022-10-15T20:43:43.998Z,100330.25
2022-10-15T20:46:13.362Z,100331.13
2022-10-15T20:48:41.538Z,100332.00
2022-10-15T20:51:09.365Z,100340.66
2022-10-15T20:53:35.872Z,100329.31
2022-10-15T20:56:02.445Z,100339.78
2022-10-15T20:58:29.311Z,100337.16
2022-10-15T21:00:55.950Z,100326.69
2022-10-15T21:03:22.437Z,100321.44
2022-10-15T21:05:48.829Z,100323.19
2022-10-15T21:08:15.329Z,100330.16
2022-10-15T21:10:41.829Z,100338.91
2022-10-15T21:13:08.256Z,100336.28
2022-10-15T21:15:34.685Z,100346.75
2022-10-15T21:18:01.086Z,100353.69
2022-10-15T21:20:27.573Z,100354.56
2022-10-15T21:22:53.987Z,100363.28
2022-10-15T21:25:20.430Z,100368.53
2022-10-15T21:27:46.834Z,100367.63
2022-10-15T21:30:13.277Z,100377.22
2022-10-15T21:32:39.744Z,100376.34
2022-10-15T21:35:06.541Z,100381.56
2022-10-15T21:37:37.094Z,100378.94
2022-10-15T21:40:04.949Z,100382.41
2022-10-15T21:42:31.337Z,100376.28
2022-10-15T21:44:58.305Z,100377.16
2022-10-15T21:47:25.546Z,100370.16
2022-10-15T21:49:52.139Z,100373.66
2022-10-15T21:52:18.552Z,100382.38
2022-10-15T21:54:45.007Z,100385.88
2022-10-15T21:57:11.516Z,100386.69
2022-10-15T21:59:37.936Z,100396.28
2022-10-15T22:02:04.494Z,100386.69
2022-10-15T22:04:34.563Z,100398.91
2022-10-15T22:07:01.189Z,100398.91
2022-10-15T22:09:27.654Z,100388.41
2022-10-15T22:11:54.421Z,100392.78
2022-10-15T22:14:20.822Z,100391.03
2022-10-15T22:16:47.226Z,100393.66
2022-10-15T22:19:14.664Z,100397.13
2022-10-15T22:21:41.083Z,100405.88
2022-10-15T22:24:14.027Z,100413.72
2022-10-15T22:26:43.883Z,100415.47
2022-10-15T22:29:17.431Z,100419.81
2022-10-15T22:31:43.965Z,100427.69
2022-10-15T22:34:10.492Z,100428.56
2022-10-15T22:36:36.905Z,100425.06
2022-10-15T22:39:05.607Z,100436.44
2022-10-15T22:41:39.548Z,100446.91
2022-10-15T22:44:12.301Z,100453.03
2022-10-15T22:46:39.034Z,100466.13
2022-10-15T22:49:06.946Z,100480.94
2022-10-15T22:51:33.580Z,100484.44
2022-10-15T22:54:00.521Z,100472.19
2022-10-15T22:56:27.907Z,100471.31
2022-10-15T22:58:56.817Z,100475.69
2022-10-15T23:01:25.969Z,100471.34
2022-10-15T23:03:54.664Z,100459.13
2022-10-15T23:06:21.909Z,100449.53
2022-10-15T23:08:48.841Z,100445.19
2022-10-15T23:11:18.598Z,100444.31
2022-10-15T23:13:45.792Z,100443.47
2022-10-15T23:16:18.448Z,100456.56
2022-10-15T23:18:46.536Z,100468.75
2022-10-15T23:21:18.478Z,100474.84
2022-10-15T23:23:45.637Z,100479.22
2022-10-15T23:26:14.154Z,100481.81
2022-10-15T23:28:41.139Z,100481.78
2022-10-15T23:31:07.690Z,100481.78
2022-10-15T23:33:34.097Z,100486.13
2022-10-15T23:36:03.230Z,100488.69
2022-10-15T23:38:30.046Z,100487.78
2022-10-15T23:41:04.106Z,100490.38
2022-10-15T23:43:30.532Z,100506.06
2022-10-15T23:45:57.600Z,100509.50
2022-10-15T23:48:24.147Z,100506.00
2022-10-15T23:50:50.777Z,100513.84
2022-10-15T23:53:17.285Z,100511.22
2022-10-15T23:55:43.791Z,100507.72
2022-10-15T23:58:10.966Z,100516.44
